sensor_id;sensor_type;location;lat;lon;timestamp;P1;durP1;ratioP1;P2;durP2;ratioP2
71763;SDS011;59602;52.142;5.408;2024-02-28T00:00:56;22.27;;;7.88;;
71763;SDS011;59602;52.142;5.408;2024-02-28T00:03:23;18.38;;;7.72;;
71763;SDS011;59602;52.142;5.408;2024-02-28T00:05:52;20.90;;;8.15;;
71763;SDS011;59602;52.142;5.408;2024-02-28T00:08:21;19.65;;;8.73;;
71763;SDS011;59602;52.142;5.408;2024-02-28T00:10:49;22.37;;;8.30;;
71763;SDS011;59602;52.142;5.408;2024-02-28T00:13:16;23.25;;;8.45;;
71763;SDS011;59602;52.142;5.408;2024-02-28T00:15:43;23.90;;;9.02;;
71763;SDS011;59602;52.142;5.408;2024-02-28T00:18:12;22.70;;;8.40;;
71763;SDS011;59602;52.142;5.408;2024-02-28T00:20:46;21.98;;;8.38;;
71763;SDS011;59602;52.142;5.408;2024-02-28T00:23:13;20.60;;;8.40;;
71763;SDS011;59602;52.142;5.408;2024-02-28T00:25:46;21.02;;;8.35;;
71763;SDS011;59602;52.142;5.408;2024-02-28T00:28:16;20.17;;;8.30;;
71763;SDS011;59602;52.142;5.408;2024-02-28T00:30:50;21.00;;;8.15;;
71763;SDS011;59602;52.142;5.408;2024-02-28T00:33:24;20.80;;;8.07;;
71763;SDS011;59602;52.142;5.408;2024-02-28T00:35:51;20.00;;;7.80;;
71763;SDS011;59602;52.142;5.408;2024-02-28T00:38:19;22.80;;;7.82;;
71763;SDS011;59602;52.142;5.408;2024-02-28T00:40:46;22.48;;;8.13;;
71763;SDS011;59602;52.142;5.408;2024-02-28T00:43:13;24.35;;;8.98;;
71763;SDS011;59602;52.142;5.408;2024-02-28T00:45:40;26.17;;;8.18;;
71763;SDS011;59602;52.142;5.408;2024-02-28T00:48:07;21.53;;;7.93;;
71763;SDS011;59602;52.142;5.408;2024-02-28T00:50:34;24.23;;;8.52;;
71763;SDS011;59602;52.142;5.408;2024-02-28T00:53:01;24.42;;;9.02;;
71763;SDS011;59602;52.142;5.408;2024-02-28T00:55:28;22.42;;;8.18;;
71763;SDS011;59602;52.142;5.408;2024-02-28T00:57:56;19.55;;;7.97;;
71763;SDS011;59602;52.142;5.408;2024-02-28T01:00:25;22.37;;;8.37;;
71763;SDS011;59602;52.142;5.408;2024-02-28T01:02:52;21.95;;;7.80;;
71763;SDS011;59602;52.142;5.408;2024-02-28T01:05:22;22.20;;;8.63;;
71763;SDS011;59602;52.142;5.408;2024-02-28T01:07:48;22.85;;;8.27;;
71763;SDS011;59602;52.142;5.408;2024-02-28T01:10:25;24.35;;;8.68;;
71763;SDS011;59602;52.142;5.408;2024-02-28T01:12:54;24.03;;;8.80;;
71763;SDS011;59602;52.142;5.408;2024-02-28T01:15:21;21.65;;;7.55;;
71763;SDS011;59602;52.142;5.408;2024-02-28T01:17:52;23.67;;;7.43;;
71763;SDS011;59602;52.142;5.408;2024-02-28T01:20:21;21.50;;;8.27;;
71763;SDS011;59602;52.142;5.408;2024-02-28T01:22:47;22.98;;;8.38;;
71763;SDS011;59602;52.142;5.408;2024-02-28T01:25:14;23.37;;;7.93;;
71763;SDS011;59602;52.142;5.408;2024-02-28T01:27:43;18.90;;;7.30;;
71763;SDS011;59602;52.142;5.408;2024-02-28T01:30:15;20.13;;;7.15;;
71763;SDS011;59602;52.142;5.408;2024-02-28T01:32:42;22.40;;;7.88;;
71763;SDS011;59602;52.142;5.408;2024-02-28T01:35:12;20.27;;;6.82;;
71763;SDS011;59602;52.142;5.408;2024-02-28T01:37:39;22.10;;;7.53;;
71763;SDS011;59602;52.142;5.408;2024-02-28T01:40:06;20.98;;;7.70;;
71763;SDS011;59602;52.142;5.408;2024-02-28T01:42:34;22.52;;;7.53;;
71763;SDS011;59602;52.142;5.408;2024-02-28T01:45:04;21.40;;;7.40;;
71763;SDS011;59602;52.142;5.408;2024-02-28T01:47:33;22.95;;;7.63;;
71763;SDS011;59602;52.142;5.408;2024-02-28T01:50:00;27.60;;;8.47;;
71763;SDS011;59602;52.142;5.408;2024-02-28T01:52:27;26.77;;;8.57;;
71763;SDS011;59602;52.142;5.408;2024-02-28T01:54:54;27.77;;;9.50;;
71763;SDS011;59602;52.142;5.408;2024-02-28T01:57:20;28.33;;;9.18;;
71763;SDS011;59602;52.142;5.408;2024-02-28T01:59:51;34.75;;;9.25;;
71763;SDS011;59602;52.142;5.408;2024-02-28T02:02:21;34.50;;;9.80;;
71763;SDS011;59602;52.142;5.408;2024-02-28T02:04:50;33.53;;;9.60;;
71763;SDS011;59602;52.142;5.408;2024-02-28T02:07:19;35.30;;;9.73;;
71763;SDS011;59602;52.142;5.408;2024-02-28T02:09:46;29.27;;;9.55;;
71763;SDS011;59602;52.142;5.408;2024-02-28T02:12:13;60.38;;;10.50;;
71763;SDS011;59602;52.142;5.408;2024-02-28T02:14:51;29.73;;;8.57;;
71763;SDS011;59602;52.142;5.408;2024-02-28T02:17:28;39.05;;;9.07;;
71763;SDS011;59602;52.142;5.408;2024-02-28T02:19:58;51.45;;;9.77;;
71763;SDS011;59602;52.142;5.408;2024-02-28T02:23:02;36.17;;;9.02;;
71763;SDS011;59602;52.142;5.408;2024-02-28T02:25:34;27.02;;;8.50;;
71763;SDS011;59602;52.142;5.408;2024-02-28T02:28:19;36.00;;;9.13;;
71763;SDS011;59602;52.142;5.408;2024-02-28T02:30:49;31.85;;;9.38;;
71763;SDS011;59602;52.142;5.408;2024-02-28T02:33:16;43.80;;;8.50;;
71763;SDS011;59602;52.142;5.408;2024-02-28T02:35:46;36.10;;;9.77;;
71763;SDS011;59602;52.142;5.408;2024-02-28T02:38:23;30.63;;;9.13;;
71763;SDS011;59602;52.142;5.408;2024-02-28T02:40:52;40.17;;;9.63;;
71763;SDS011;59602;52.142;5.408;2024-02-28T02:43:19;24.15;;;7.97;;
71763;SDS011;59602;52.142;5.408;2024-02-28T02:46:06;21.70;;;8.95;;
71763;SDS011;59602;52.142;5.408;2024-02-28T02:48:33;20.77;;;8.07;;
71763;SDS011;59602;52.142;5.408;2024-02-28T02:51:05;22.25;;;7.95;;
71763;SDS011;59602;52.142;5.408;2024-02-28T02:53:34;21.13;;;7.83;;
71763;SDS011;59602;52.142;5.408;2024-02-28T02:56:04;20.88;;;7.82;;
71763;SDS011;59602;52.142;5.408;2024-02-28T02:58:33;21.30;;;7.05;;
71763;SDS011;59602;52.142;5.408;2024-02-28T03:01:02;20.20;;;7.40;;
71763;SDS011;59602;52.142;5.408;2024-02-28T03:03:31;18.27;;;7.72;;
71763;SDS011;59602;52.142;5.408;2024-02-28T03:06:01;21.70;;;7.80;;
71763;SDS011;59602;52.142;5.408;2024-02-28T03:08:27;21.48;;;7.53;;
71763;SDS011;59602;52.142;5.408;2024-02-28T03:10:54;23.50;;;8.40;;
71763;SDS011;59602;52.142;5.408;2024-02-28T03:13:24;20.83;;;7.35;;
71763;SDS011;59602;52.142;5.408;2024-02-28T03:15:51;20.23;;;7.80;;
71763;SDS011;59602;52.142;5.408;2024-02-28T03:18:18;18.13;;;8.03;;
71763;SDS011;59602;52.142;5.408;2024-02-28T03:20:45;20.23;;;7.03;;
71763;SDS011;59602;52.142;5.408;2024-02-28T03:23:16;19.05;;;8.15;;
71763;SDS011;59602;52.142;5.408;2024-02-28T03:25:44;18.90;;;7.22;;
71763;SDS011;59602;52.142;5.408;2024-02-28T03:28:11;19.42;;;7.75;;
71763;SDS011;59602;52.142;5.408;2024-02-28T03:30:38;19.60;;;7.77;;
71763;SDS011;59602;52.142;5.408;2024-02-28T03:33:25;16.17;;;7.05;;
71763;SDS011;59602;52.142;5.408;2024-02-28T03:35:55;16.80;;;7.97;;
71763;SDS011;59602;52.142;5.408;2024-02-28T03:38:22;18.75;;;7.30;;
71763;SDS011;59602;52.142;5.408;2024-02-28T03:40:49;17.67;;;7.75;;
71763;SDS011;59602;52.142;5.408;2024-02-28T03:43:16;19.10;;;8.03;;
71763;SDS011;59602;52.142;5.408;2024-02-28T03:45:42;20.27;;;7.88;;
71763;SDS011;59602;52.142;5.408;2024-02-28T03:48:09;19.17;;;7.63;;
71763;SDS011;59602;52.142;5.408;2024-02-28T03:50:36;19.05;;;7.60;;
71763;SDS011;59602;52.142;5.408;2024-02-28T03:53:05;19.15;;;7.65;;
71763;SDS011;59602;52.142;5.408;2024-02-28T03:55:32;15.93;;;6.87;;
71763;SDS011;59602;52.142;5.408;2024-02-28T03:57:59;19.00;;;7.32;;
71763;SDS011;59602;52.142;5.408;2024-02-28T04:00:25;19.15;;;8.00;;
71763;SDS011;59602;52.142;5.408;2024-02-28T04:02:52;18.58;;;7.22;;
71763;SDS011;59602;52.142;5.408;2024-02-28T04:05:19;18.02;;;8.25;;
71763;SDS011;59602;52.142;5.408;2024-02-28T04:07:46;18.63;;;7.53;;
71763;SDS011;59602;52.142;5.408;2024-02-28T04:10:13;17.17;;;7.78;;
71763;SDS011;59602;52.142;5.408;2024-02-28T04:12:42;19.20;;;7.78;;
71763;SDS011;59602;52.142;5.408;2024-02-28T04:15:11;21.98;;;8.27;;
71763;SDS011;59602;52.142;5.408;2024-02-28T04:17:41;19.75;;;8.00;;
71763;SDS011;59602;52.142;5.408;2024-02-28T04:20:09;18.30;;;7.57;;
71763;SDS011;59602;52.142;5.408;2024-02-28T04:22:37;19.25;;;8.05;;
71763;SDS011;59602;52.142;5.408;2024-02-28T04:25:04;19.65;;;7.57;;
71763;SDS011;59602;52.142;5.408;2024-02-28T04:27:32;20.10;;;7.80;;
71763;SDS011;59602;52.142;5.408;2024-02-28T04:30:08;19.42;;;8.70;;
71763;SDS011;59602;52.142;5.408;2024-02-28T04:32:35;21.83;;;8.43;;
71763;SDS011;59602;52.142;5.408;2024-02-28T04:35:02;21.63;;;8.40;;
71763;SDS011;59602;52.142;5.408;2024-02-28T04:37:29;17.92;;;7.38;;
71763;SDS011;59602;52.142;5.408;2024-02-28T04:39:56;19.60;;;7.95;;
71763;SDS011;59602;52.142;5.408;2024-02-28T04:42:23;23.67;;;9.43;;
71763;SDS011;59602;52.142;5.408;2024-02-28T04:44:49;20.87;;;8.00;;
71763;SDS011;59602;52.142;5.408;2024-02-28T04:47:16;19.30;;;7.57;;
71763;SDS011;59602;52.142;5.408;2024-02-28T04:49:47;19.70;;;8.30;;
71763;SDS011;59602;52.142;5.408;2024-02-28T04:52:13;19.35;;;8.05;;
71763;SDS011;59602;52.142;5.408;2024-02-28T04:54:40;18.65;;;8.13;;
71763;SDS011;59602;52.142;5.408;2024-02-28T04:57:07;17.33;;;7.77;;
71763;SDS011;59602;52.142;5.408;2024-02-28T04:59:34;18.52;;;8.32;;
71763;SDS011;59602;52.142;5.408;2024-02-28T05:02:00;15.52;;;7.28;;
71763;SDS011;59602;52.142;5.408;2024-02-28T05:04:27;15.90;;;7.38;;
71763;SDS011;59602;52.142;5.408;2024-02-28T05:06:58;17.25;;;7.63;;
71763;SDS011;59602;52.142;5.408;2024-02-28T05:09:28;15.33;;;7.30;;
71763;SDS011;59602;52.142;5.408;2024-02-28T05:11:54;17.98;;;7.40;;
71763;SDS011;59602;52.142;5.408;2024-02-28T05:14:21;19.25;;;7.95;;
71763;SDS011;59602;52.142;5.408;2024-02-28T05:16:48;16.27;;;6.85;;
71763;SDS011;59602;52.142;5.408;2024-02-28T05:19:14;17.20;;;7.78;;
71763;SDS011;59602;52.142;5.408;2024-02-28T05:21:44;17.10;;;7.50;;
71763;SDS011;59602;52.142;5.408;2024-02-28T05:24:11;18.23;;;7.60;;
71763;SDS011;59602;52.142;5.408;2024-02-28T05:26:39;13.88;;;6.80;;
71763;SDS011;59602;52.142;5.408;2024-02-28T05:29:06;15.15;;;7.05;;
71763;SDS011;59602;52.142;5.408;2024-02-28T05:31:34;16.52;;;7.47;;
71763;SDS011;59602;52.142;5.408;2024-02-28T05:34:02;17.63;;;6.80;;
71763;SDS011;59602;52.142;5.408;2024-02-28T05:36:29;15.57;;;7.35;;
71763;SDS011;59602;52.142;5.408;2024-02-28T05:38:57;16.40;;;7.45;;
71763;SDS011;59602;52.142;5.408;2024-02-28T05:41:24;15.80;;;7.18;;
71763;SDS011;59602;52.142;5.408;2024-02-28T05:43:51;16.63;;;8.10;;
71763;SDS011;59602;52.142;5.408;2024-02-28T05:46:18;16.40;;;7.73;;
71763;SDS011;59602;52.142;5.408;2024-02-28T05:48:45;15.18;;;6.95;;
71763;SDS011;59602;52.142;5.408;2024-02-28T05:51:13;16.63;;;7.50;;
71763;SDS011;59602;52.142;5.408;2024-02-28T05:53:40;16.77;;;7.32;;
71763;SDS011;59602;52.142;5.408;2024-02-28T05:56:08;14.35;;;7.07;;
71763;SDS011;59602;52.142;5.408;2024-02-28T05:58:43;17.33;;;7.10;;
71763;SDS011;59602;52.142;5.408;2024-02-28T06:01:11;15.25;;;7.55;;
71763;SDS011;59602;52.142;5.408;2024-02-28T06:03:38;15.75;;;6.30;;
71763;SDS011;59602;52.142;5.408;2024-02-28T06:06:23;15.77;;;7.50;;
71763;SDS011;59602;52.142;5.408;2024-02-28T06:08:50;16.02;;;7.13;;
71763;SDS011;59602;52.142;5.408;2024-02-28T06:11:17;15.37;;;6.57;;
71763;SDS011;59602;52.142;5.408;2024-02-28T06:13:43;14.98;;;7.22;;
71763;SDS011;59602;52.142;5.408;2024-02-28T06:16:14;13.75;;;7.22;;
71763;SDS011;59602;52.142;5.408;2024-02-28T06:18:41;15.25;;;7.47;;
71763;SDS011;59602;52.142;5.408;2024-02-28T06:21:08;15.85;;;8.25;;
71763;SDS011;59602;52.142;5.408;2024-02-28T06:23:35;17.87;;;8.10;;
71763;SDS011;59602;52.142;5.408;2024-02-28T06:26:02;16.35;;;7.30;;
71763;SDS011;59602;52.142;5.408;2024-02-28T06:28:29;14.43;;;6.78;;
71763;SDS011;59602;52.142;5.408;2024-02-28T06:30:56;16.08;;;8.13;;
71763;SDS011;59602;52.142;5.408;2024-02-28T06:33:22;15.35;;;8.00;;
71763;SDS011;59602;52.142;5.408;2024-02-28T06:35:49;15.23;;;8.00;;
71763;SDS011;59602;52.142;5.408;2024-02-28T06:38:16;17.38;;;8.52;;
71763;SDS011;59602;52.142;5.408;2024-02-28T06:40:43;16.48;;;8.30;;
71763;SDS011;59602;52.142;5.408;2024-02-28T06:43:09;13.90;;;7.80;;
71763;SDS011;59602;52.142;5.408;2024-02-28T06:45:41;17.30;;;8.27;;
71763;SDS011;59602;52.142;5.408;2024-02-28T06:48:08;16.33;;;7.87;;
71763;SDS011;59602;52.142;5.408;2024-02-28T06:50:38;16.80;;;7.70;;
71763;SDS011;59602;52.142;5.408;2024-02-28T06:53:07;20.23;;;8.75;;
71763;SDS011;59602;52.142;5.408;2024-02-28T06:55:34;14.15;;;7.40;;
71763;SDS011;59602;52.142;5.408;2024-02-28T06:58:01;17.27;;;8.90;;
71763;SDS011;59602;52.142;5.408;2024-02-28T07:00:28;15.80;;;8.07;;
71763;SDS011;59602;52.142;5.408;2024-02-28T07:02:55;13.93;;;8.00;;
71763;SDS011;59602;52.142;5.408;2024-02-28T07:05:21;16.10;;;8.35;;
71763;SDS011;59602;52.142;5.408;2024-02-28T07:07:48;17.85;;;8.25;;
71763;SDS011;59602;52.142;5.408;2024-02-28T07:10:15;16.73;;;8.82;;
71763;SDS011;59602;52.142;5.408;2024-02-28T07:12:43;15.80;;;8.10;;
71763;SDS011;59602;52.142;5.408;2024-02-28T07:15:09;17.75;;;7.88;;
71763;SDS011;59602;52.142;5.408;2024-02-28T07:17:36;17.50;;;8.50;;
71763;SDS011;59602;52.142;5.408;2024-02-28T07:20:03;19.80;;;8.38;;
71763;SDS011;59602;52.142;5.408;2024-02-28T07:22:30;17.38;;;8.43;;
71763;SDS011;59602;52.142;5.408;2024-02-28T07:24:57;15.50;;;8.37;;
71763;SDS011;59602;52.142;5.408;2024-02-28T07:27:59;17.17;;;8.40;;
71763;SDS011;59602;52.142;5.408;2024-02-28T07:30:29;17.00;;;8.65;;
71763;SDS011;59602;52.142;5.408;2024-02-28T07:32:58;15.63;;;8.43;;
71763;SDS011;59602;52.142;5.408;2024-02-28T07:35:30;15.70;;;8.73;;
71763;SDS011;59602;52.142;5.408;2024-02-28T07:38:02;14.33;;;7.80;;
71763;SDS011;59602;52.142;5.408;2024-02-28T07:40:36;15.95;;;8.15;;
71763;SDS011;59602;52.142;5.408;2024-02-28T07:43:37;17.73;;;9.20;;
71763;SDS011;59602;52.142;5.408;2024-02-28T07:46:26;18.50;;;10.18;;
71763;SDS011;59602;52.142;5.408;2024-02-28T07:48:56;21.83;;;11.30;;
71763;SDS011;59602;52.142;5.408;2024-02-28T07:51:26;20.77;;;10.83;;
71763;SDS011;59602;52.142;5.408;2024-02-28T07:54:23;17.73;;;8.70;;
71763;SDS011;59602;52.142;5.408;2024-02-28T07:57:16;17.67;;;9.20;;
71763;SDS011;59602;52.142;5.408;2024-02-28T07:59:48;15.65;;;8.27;;
71763;SDS011;59602;52.142;5.408;2024-02-28T08:02:17;16.38;;;9.07;;
71763;SDS011;59602;52.142;5.408;2024-02-28T08:04:46;15.03;;;7.87;;
71763;SDS011;59602;52.142;5.408;2024-02-28T08:07:31;17.65;;;9.20;;
71763;SDS011;59602;52.142;5.408;2024-02-28T08:10:02;17.00;;;8.93;;
71763;SDS011;59602;52.142;5.408;2024-02-28T08:12:54;13.68;;;8.75;;
71763;SDS011;59602;52.142;5.408;2024-02-28T08:16:16;15.00;;;8.15;;
71763;SDS011;59602;52.142;5.408;2024-02-28T08:19:18;15.53;;;7.67;;
71763;SDS011;59602;52.142;5.408;2024-02-28T08:22:10;16.55;;;8.50;;
71763;SDS011;59602;52.142;5.408;2024-02-28T08:24:37;15.95;;;8.70;;
71763;SDS011;59602;52.142;5.408;2024-02-28T08:27:04;15.90;;;9.40;;
71763;SDS011;59602;52.142;5.408;2024-02-28T08:29:31;14.63;;;8.25;;
71763;SDS011;59602;52.142;5.408;2024-02-28T08:32:04;14.63;;;7.60;;
71763;SDS011;59602;52.142;5.408;2024-02-28T08:34:35;15.48;;;8.32;;
71763;SDS011;59602;52.142;5.408;2024-02-28T08:37:08;13.75;;;8.32;;
71763;SDS011;59602;52.142;5.408;2024-02-28T08:39:42;14.63;;;8.50;;
71763;SDS011;59602;52.142;5.408;2024-02-28T08:42:09;15.80;;;8.43;;
71763;SDS011;59602;52.142;5.408;2024-02-28T08:44:38;14.70;;;8.90;;
71763;SDS011;59602;52.142;5.408;2024-02-28T08:47:08;17.63;;;9.27;;
71763;SDS011;59602;52.142;5.408;2024-02-28T08:49:57;15.38;;;8.30;;
71763;SDS011;59602;52.142;5.408;2024-02-28T08:52:30;13.88;;;9.15;;
71763;SDS011;59602;52.142;5.408;2024-02-28T08:55:00;15.40;;;8.90;;
71763;SDS011;59602;52.142;5.408;2024-02-28T08:57:27;20.63;;;9.70;;
71763;SDS011;59602;52.142;5.408;2024-02-28T09:00:04;16.00;;;9.57;;
71763;SDS011;59602;52.142;5.408;2024-02-28T09:03:00;15.80;;;9.50;;
71763;SDS011;59602;52.142;5.408;2024-02-28T09:05:28;17.85;;;9.55;;
71763;SDS011;59602;52.142;5.408;2024-02-28T09:07:54;16.02;;;9.50;;
71763;SDS011;59602;52.142;5.408;2024-02-28T09:10:26;16.33;;;9.47;;
71763;SDS011;59602;52.142;5.408;2024-02-28T09:12:57;15.88;;;9.55;;
71763;SDS011;59602;52.142;5.408;2024-02-28T09:15:29;15.57;;;9.32;;
71763;SDS011;59602;52.142;5.408;2024-02-28T09:17:59;14.52;;;9.40;;
71763;SDS011;59602;52.142;5.408;2024-02-28T09:20:27;15.18;;;9.02;;
71763;SDS011;59602;52.142;5.408;2024-02-28T09:22:56;17.23;;;10.37;;
71763;SDS011;59602;52.142;5.408;2024-02-28T09:25:26;20.17;;;11.07;;
71763;SDS011;59602;52.142;5.408;2024-02-28T09:27:56;17.50;;;10.77;;
71763;SDS011;59602;52.142;5.408;2024-02-28T09:30:23;19.10;;;11.55;;
71763;SDS011;59602;52.142;5.408;2024-02-28T09:33:01;19.80;;;11.27;;
71763;SDS011;59602;52.142;5.408;2024-02-28T09:35:27;20.20;;;11.27;;
71763;SDS011;59602;52.142;5.408;2024-02-28T09:37:54;20.80;;;11.30;;
71763;SDS011;59602;52.142;5.408;2024-02-28T09:40:23;22.67;;;11.75;;
71763;SDS011;59602;52.142;5.408;2024-02-28T09:43:02;22.20;;;12.10;;
71763;SDS011;59602;52.142;5.408;2024-02-28T09:45:30;19.63;;;11.50;;
71763;SDS011;59602;52.142;5.408;2024-02-28T09:48:01;21.47;;;12.03;;
71763;SDS011;59602;52.142;5.408;2024-02-28T09:50:30;23.20;;;11.85;;
71763;SDS011;59602;52.142;5.408;2024-02-28T09:52:56;20.95;;;12.07;;
71763;SDS011;59602;52.142;5.408;2024-02-28T09:55:35;23.98;;;12.07;;
71763;SDS011;59602;52.142;5.408;2024-02-28T09:58:02;23.50;;;12.50;;
71763;SDS011;59602;52.142;5.408;2024-02-28T10:00:30;27.13;;;12.77;;
71763;SDS011;59602;52.142;5.408;2024-02-28T10:02:57;20.52;;;11.85;;
71763;SDS011;59602;52.142;5.408;2024-02-28T10:05:25;20.52;;;11.98;;
71763;SDS011;59602;52.142;5.408;2024-02-28T10:07:55;21.67;;;11.43;;
71763;SDS011;59602;52.142;5.408;2024-02-28T10:10:21;20.02;;;10.90;;
71763;SDS011;59602;52.142;5.408;2024-02-28T10:12:48;22.37;;;12.03;;
71763;SDS011;59602;52.142;5.408;2024-02-28T10:15:18;20.40;;;11.63;;
71763;SDS011;59602;52.142;5.408;2024-02-28T10:17:44;19.35;;;11.40;;
71763;SDS011;59602;52.142;5.408;2024-02-28T10:20:12;23.38;;;11.57;;
71763;SDS011;59602;52.142;5.408;2024-02-28T10:22:39;21.08;;;12.13;;
71763;SDS011;59602;52.142;5.408;2024-02-28T10:25:08;19.67;;;11.70;;
71763;SDS011;59602;52.142;5.408;2024-02-28T10:27:35;22.20;;;11.27;;
71763;SDS011;59602;52.142;5.408;2024-02-28T10:30:05;19.35;;;11.27;;
71763;SDS011;59602;52.142;5.408;2024-02-28T10:32:33;21.42;;;11.90;;
71763;SDS011;59602;52.142;5.408;2024-02-28T10:35:03;20.50;;;11.98;;
71763;SDS011;59602;52.142;5.408;2024-02-28T10:37:37;19.47;;;10.87;;
71763;SDS011;59602;52.142;5.408;2024-02-28T10:40:05;19.83;;;10.98;;
71763;SDS011;59602;52.142;5.408;2024-02-28T10:42:33;20.75;;;11.07;;
71763;SDS011;59602;52.142;5.408;2024-02-28T10:45:00;17.23;;;10.85;;
71763;SDS011;59602;52.142;5.408;2024-02-28T10:47:45;20.70;;;10.75;;
71763;SDS011;59602;52.142;5.408;2024-02-28T10:50:14;20.40;;;11.07;;
71763;SDS011;59602;52.142;5.408;2024-02-28T10:52:54;21.98;;;11.50;;
71763;SDS011;59602;52.142;5.408;2024-02-28T10:55:27;21.15;;;12.32;;
71763;SDS011;59602;52.142;5.408;2024-02-28T10:58:07;19.85;;;10.88;;
71763;SDS011;59602;52.142;5.408;2024-02-28T11:00:36;21.83;;;11.20;;
71763;SDS011;59602;52.142;5.408;2024-02-28T11:03:05;22.37;;;12.03;;
71763;SDS011;59602;52.142;5.408;2024-02-28T11:05:35;22.40;;;11.80;;
71763;SDS011;59602;52.142;5.408;2024-02-28T11:08:03;23.35;;;12.02;;
71763;SDS011;59602;52.142;5.408;2024-02-28T11:10:33;22.77;;;12.18;;
71763;SDS011;59602;52.142;5.408;2024-02-28T11:13:06;20.25;;;12.07;;
71763;SDS011;59602;52.142;5.408;2024-02-28T11:15:37;21.97;;;12.00;;
71763;SDS011;59602;52.142;5.408;2024-02-28T11:18:07;21.42;;;11.20;;
71763;SDS011;59602;52.142;5.408;2024-02-28T11:20:36;20.95;;;11.40;;
71763;SDS011;59602;52.142;5.408;2024-02-28T11:23:05;23.35;;;12.73;;
71763;SDS011;59602;52.142;5.408;2024-02-28T11:25:32;21.95;;;12.55;;
71763;SDS011;59602;52.142;5.408;2024-02-28T11:27:59;22.17;;;12.10;;
71763;SDS011;59602;52.142;5.408;2024-02-28T11:30:26;22.73;;;12.25;;
71763;SDS011;59602;52.142;5.408;2024-02-28T11:32:53;24.27;;;12.25;;
71763;SDS011;59602;52.142;5.408;2024-02-28T11:35:22;22.77;;;12.13;;
71763;SDS011;59602;52.142;5.408;2024-02-28T11:37:58;21.48;;;12.15;;
71763;SDS011;59602;52.142;5.408;2024-02-28T11:40:27;23.27;;;11.37;;
71763;SDS011;59602;52.142;5.408;2024-02-28T11:42:56;25.38;;;12.75;;
71763;SDS011;59602;52.142;5.408;2024-02-28T11:45:25;20.95;;;10.65;;
71763;SDS011;59602;52.142;5.408;2024-02-28T11:47:52;18.45;;;11.32;;
71763;SDS011;59602;52.142;5.408;2024-02-28T11:50:19;17.70;;;10.38;;
71763;SDS011;59602;52.142;5.408;2024-02-28T11:55:24;20.90;;;11.55;;
71763;SDS011;59602;52.142;5.408;2024-02-28T11:57:52;21.63;;;11.10;;
71763;SDS011;59602;52.142;5.408;2024-02-28T12:00:22;22.65;;;10.25;;
71763;SDS011;59602;52.142;5.408;2024-02-28T12:02:49;19.70;;;10.02;;
71763;SDS011;59602;52.142;5.408;2024-02-28T12:05:24;21.47;;;10.17;;
71763;SDS011;59602;52.142;5.408;2024-02-28T12:07:52;21.00;;;10.88;;
71763;SDS011;59602;52.142;5.408;2024-02-28T12:10:25;22.67;;;10.70;;
71763;SDS011;59602;52.142;5.408;2024-02-28T12:12:58;22.80;;;11.75;;
71763;SDS011;59602;52.142;5.408;2024-02-28T12:15:28;24.02;;;12.02;;
71763;SDS011;59602;52.142;5.408;2024-02-28T12:18:06;26.27;;;11.73;;
71763;SDS011;59602;52.142;5.408;2024-02-28T12:20:34;19.80;;;10.95;;
71763;SDS011;59602;52.142;5.408;2024-02-28T12:23:17;23.48;;;11.40;;
71763;SDS011;59602;52.142;5.408;2024-02-28T12:25:44;21.00;;;10.50;;
71763;SDS011;59602;52.142;5.408;2024-02-28T12:28:11;24.25;;;11.27;;
71763;SDS011;59602;52.142;5.408;2024-02-28T12:30:40;24.03;;;10.93;;
71763;SDS011;59602;52.142;5.408;2024-02-28T12:33:10;24.00;;;10.73;;
71763;SDS011;59602;52.142;5.408;2024-02-28T12:35:38;22.42;;;10.15;;
71763;SDS011;59602;52.142;5.408;2024-02-28T12:38:08;19.35;;;9.50;;
71763;SDS011;59602;52.142;5.408;2024-02-28T12:40:35;20.77;;;9.50;;
71763;SDS011;59602;52.142;5.408;2024-02-28T12:43:05;20.73;;;9.43;;
71763;SDS011;59602;52.142;5.408;2024-02-28T12:45:32;21.75;;;10.32;;
71763;SDS011;59602;52.142;5.408;2024-02-28T12:47:59;20.33;;;9.95;;
71763;SDS011;59602;52.142;5.408;2024-02-28T12:50:28;18.10;;;9.63;;
71763;SDS011;59602;52.142;5.408;2024-02-28T12:52:55;16.05;;;8.65;;
71763;SDS011;59602;52.142;5.408;2024-02-28T12:55:42;19.47;;;9.70;;
71763;SDS011;59602;52.142;5.408;2024-02-28T12:58:11;20.20;;;9.63;;
71763;SDS011;59602;52.142;5.408;2024-02-28T13:00:39;20.85;;;10.05;;
71763;SDS011;59602;52.142;5.408;2024-02-28T13:03:06;22.90;;;10.23;;
71763;SDS011;59602;52.142;5.408;2024-02-28T13:05:32;21.38;;;9.90;;
71763;SDS011;59602;52.142;5.408;2024-02-28T13:07:59;19.57;;;10.00;;
71763;SDS011;59602;52.142;5.408;2024-02-28T13:10:26;21.75;;;10.13;;
71763;SDS011;59602;52.142;5.408;2024-02-28T13:12:53;20.65;;;10.05;;
71763;SDS011;59602;52.142;5.408;2024-02-28T13:15:19;19.90;;;9.95;;
71763;SDS011;59602;52.142;5.408;2024-02-28T13:17:46;20.95;;;10.13;;
71763;SDS011;59602;52.142;5.408;2024-02-28T13:20:16;19.00;;;9.47;;
71763;SDS011;59602;52.142;5.408;2024-02-28T13:22:43;22.13;;;10.95;;
71763;SDS011;59602;52.142;5.408;2024-02-28T13:25:11;20.23;;;10.10;;
71763;SDS011;59602;52.142;5.408;2024-02-28T13:27:40;17.38;;;9.63;;
71763;SDS011;59602;52.142;5.408;2024-02-28T13:30:07;19.55;;;9.40;;
71763;SDS011;59602;52.142;5.408;2024-02-28T13:32:34;15.93;;;9.47;;
71763;SDS011;59602;52.142;5.408;2024-02-28T13:35:00;16.40;;;9.50;;
71763;SDS011;59602;52.142;5.408;2024-02-28T13:37:27;20.48;;;9.60;;
71763;SDS011;59602;52.142;5.408;2024-02-28T13:39:54;17.05;;;9.27;;
71763;SDS011;59602;52.142;5.408;2024-02-28T13:42:20;17.80;;;9.55;;
71763;SDS011;59602;52.142;5.408;2024-02-28T13:44:47;18.50;;;9.83;;
71763;SDS011;59602;52.142;5.408;2024-02-28T13:47:14;21.80;;;10.10;;
71763;SDS011;59602;52.142;5.408;2024-02-28T13:49:41;20.23;;;10.55;;
71763;SDS011;59602;52.142;5.408;2024-02-28T13:52:08;20.42;;;9.50;;
71763;SDS011;59602;52.142;5.408;2024-02-28T13:54:35;18.05;;;9.40;;
71763;SDS011;59602;52.142;5.408;2024-02-28T13:57:01;17.80;;;9.50;;
71763;SDS011;59602;52.142;5.408;2024-02-28T13:59:30;19.02;;;10.00;;
71763;SDS011;59602;52.142;5.408;2024-02-28T14:01:57;18.38;;;9.77;;
71763;SDS011;59602;52.142;5.408;2024-02-28T14:04:26;17.83;;;9.48;;
71763;SDS011;59602;52.142;5.408;2024-02-28T14:06:58;18.70;;;9.77;;
71763;SDS011;59602;52.142;5.408;2024-02-28T14:09:25;16.70;;;9.03;;
71763;SDS011;59602;52.142;5.408;2024-02-28T14:11:52;18.45;;;9.25;;
71763;SDS011;59602;52.142;5.408;2024-02-28T14:14:19;19.08;;;9.63;;
71763;SDS011;59602;52.142;5.408;2024-02-28T14:16:46;18.13;;;9.95;;
71763;SDS011;59602;52.142;5.408;2024-02-28T14:19:12;20.13;;;9.77;;
71763;SDS011;59602;52.142;5.408;2024-02-28T14:21:39;20.70;;;10.37;;
71763;SDS011;59602;52.142;5.408;2024-02-28T14:24:07;20.90;;;10.30;;
71763;SDS011;59602;52.142;5.408;2024-02-28T14:26:34;19.92;;;10.50;;
71763;SDS011;59602;52.142;5.408;2024-02-28T14:29:00;19.55;;;10.30;;
71763;SDS011;59602;52.142;5.408;2024-02-28T14:31:27;18.27;;;9.70;;
71763;SDS011;59602;52.142;5.408;2024-02-28T14:33:53;18.53;;;9.47;;
71763;SDS011;59602;52.142;5.408;2024-02-28T14:36:21;19.13;;;9.52;;
71763;SDS011;59602;52.142;5.408;2024-02-28T14:38:47;17.17;;;9.90;;
71763;SDS011;59602;52.142;5.408;2024-02-28T14:41:14;18.45;;;9.23;;
71763;SDS011;59602;52.142;5.408;2024-02-28T14:43:41;15.95;;;8.65;;
71763;SDS011;59602;52.142;5.408;2024-02-28T14:46:07;18.03;;;8.67;;
71763;SDS011;59602;52.142;5.408;2024-02-28T14:48:36;20.17;;;9.55;;